createdAt,value
2019-05-25T00:05:21.018Z,100474.04
2019-05-25T00:10:44.100Z,100471.44
2019-05-25T00:16:05.787Z,100469.28
2019-05-25T00:21:29.451Z,100468.52
2019-05-25T00:26:51.210Z,100473.12
2019-05-25T00:32:14.468Z,100477.23
2019-05-25T00:37:36.257Z,100469.25
2019-05-25T00:42:59.638Z,100466.82
2019-05-25T00:48:21.389Z,100462.50
2019-05-25T00:53:44.697Z,100470.83
2019-05-25T00:59:07.984Z,100459.48
2019-05-25T01:04:31.679Z,100452.48
2019-05-25T01:09:55.307Z,100457.17
2019-05-25T01:15:18.747Z,100459.09
2019-05-25T01:20:42.375Z,100449.74
2019-05-25T01:26:04.051Z,100443.69
2019-05-25T01:31:26.949Z,100425.50
2019-05-25T01:36:42.429Z,100425.50
2019-05-25T01:42:05.633Z,100439.70
2019-05-25T01:47:27.327Z,100434.95
2019-05-25T01:52:50.621Z,100430.09
2019-05-25T01:58:12.323Z,100427.77
2019-05-25T02:03:35.595Z,100427.77
2019-05-25T02:08:57.393Z,100423.09
2019-05-25T02:14:20.630Z,100417.72
2019-05-25T02:19:42.369Z,100414.84
2019-05-25T02:25:17.147Z,100411.11
2019-05-25T02:30:32.109Z,100411.28
2019-05-25T02:35:55.430Z,100408.76
2019-05-25T02:41:17.190Z,100401.92
2019-05-25T02:46:40.434Z,100409.28
2019-05-25T02:52:02.132Z,100405.66
2019-05-25T02:57:25.397Z,100407.36
2019-05-25T03:02:47.548Z,100420.24
2019-05-25T03:08:11.718Z,100419.91
2019-05-25T03:13:35.685Z,100421.83
2019-05-25T03:18:57.372Z,100442.35
2019-05-25T03:24:20.628Z,100438.37
2019-05-25T03:29:42.443Z,100425.92
2019-05-25T03:35:05.767Z,100422.18
2019-05-25T03:40:27.694Z,100427.77
2019-05-25T03:45:51.879Z,100427.84
2019-05-25T03:51:13.659Z,100436.13
2019-05-25T03:56:37.297Z,100441.08
2019-05-25T04:01:59.050Z,100445.68
2019-05-25T04:07:21.756Z,100436.94
2019-05-25T04:12:43.470Z,100436.81
2019-05-25T04:18:06.744Z,100445.48
2019-05-25T04:23:28.567Z,100448.25
2019-05-25T04:28:51.859Z,100450.73
2019-05-25T04:34:13.553Z,100451.20
2019-05-25T04:39:36.798Z,100445.14
2019-05-25T04:44:58.488Z,100445.91
2019-05-25T04:50:23.673Z,100455.63
2019-05-25T04:55:45.865Z,100454.31
2019-05-25T05:01:09.145Z,100454.56
2019-05-25T05:06:30.919Z,100466.00
2019-05-25T05:11:54.557Z,100470.95
2019-05-25T05:17:16.307Z,100477.34
2019-05-25T05:22:39.687Z,100467.59
2019-05-25T05:27:55.365Z,100467.68
2019-05-25T05:33:18.650Z,100474.50
2019-05-25T05:38:42.083Z,100471.91
2019-05-25T05:43:59.557Z,100475.66
2019-05-25T05:49:23.544Z,100483.64
2019-05-25T05:54:45.809Z,100486.30
2019-05-25T06:00:10.877Z,100486.30
2019-05-25T06:05:33.389Z,100495.93
2019-05-25T06:10:56.656Z,100505.13
2019-05-25T06:16:18.397Z,100511.98
2019-05-25T06:21:41.969Z,100521.73
2019-05-25T06:26:57.449Z,100512.48
2019-05-25T06:32:20.665Z,100520.95
2019-05-25T06:37:42.462Z,100531.00
2019-05-25T06:43:05.828Z,100544.09
2019-05-25T06:48:27.514Z,100543.44
2019-05-25T06:53:51.021Z,100541.38
2019-05-25T06:59:12.693Z,100551.42
2019-05-25T07:04:36.227Z,100556.44
2019-05-25T07:09:51.716Z,100551.69
2019-05-25T07:15:15.821Z,100557.44
2019-05-25T07:20:37.782Z,100554.84
2019-05-25T07:26:01.215Z,100584.91
2019-05-25T07:31:16.720Z,100566.30
2019-05-25T07:36:40.506Z,100580.89
2019-05-25T07:42:02.262Z,100577.69
2019-05-25T07:47:25.632Z,100579.11
2019-05-25T07:52:41.237Z,100582.20
2019-05-25T07:58:16.435Z,100595.86
2019-05-25T08:03:29.528Z,100587.61
2019-05-25T08:08:45.076Z,100608.60
2019-05-25T08:14:09.361Z,100613.78
2019-05-25T08:27:08.855Z,100612.19
2019-05-25T08:32:30.595Z,100643.41
2019-05-25T08:37:53.843Z,100627.27
2019-05-25T08:43:15.560Z,100625.70
2019-05-25T08:48:38.864Z,100620.48
2019-05-25T08:54:00.771Z,100631.20
2019-05-25T08:59:24.062Z,100621.34
2019-05-25T09:04:45.772Z,100592.00
2019-05-25T09:10:10.135Z,100628.80
2019-05-25T09:15:32.429Z,100617.56
2019-05-25T09:20:55.703Z,100620.50
2019-05-25T09:26:19.022Z,100620.42
2019-05-25T09:31:40.809Z,100608.33
2019-05-25T09:37:03.915Z,100636.04
2019-05-25T09:42:25.656Z,100631.04
2019-05-25T09:47:48.944Z,100635.34
2019-05-25T09:53:10.697Z,100640.41
2019-05-25T09:58:33.951Z,100652.98
2019-05-25T10:03:56.770Z,100657.13
2019-05-25T10:09:20.013Z,100668.28
2019-05-25T10:14:41.705Z,100659.59
2019-05-25T10:20:03.469Z,100656.66
2019-05-25T10:25:28.222Z,100659.90
2019-05-25T10:30:49.955Z,100655.34
2019-05-25T10:36:12.962Z,100661.67
2019-05-25T10:41:34.685Z,100654.08
2019-05-25T10:46:56.361Z,100658.23
2019-05-25T10:52:18.203Z,100663.53
2019-05-25T10:57:39.958Z,100664.48
2019-05-25T11:03:01.727Z,100667.17
2019-05-25T11:08:23.542Z,100679.79
2019-05-25T11:13:45.310Z,100681.20
2019-05-25T11:19:07.119Z,100654.67
2019-05-25T11:24:28.815Z,100644.79
2019-05-25T11:30:07.596Z,100662.23
2019-05-25T11:35:16.637Z,100662.77
2019-05-25T11:40:38.879Z,100666.80
2019-05-25T11:46:00.653Z,100669.26
2019-05-25T11:51:22.543Z,100656.10
2019-05-25T11:56:44.252Z,100654.25
2019-05-25T12:02:06.168Z,100667.22
2019-05-25T12:07:28.253Z,100656.83
2019-05-25T12:12:50.400Z,100665.30
2019-05-25T12:18:12.122Z,100652.02
2019-05-25T12:23:33.847Z,100669.81
2019-05-25T12:28:55.619Z,100671.98
2019-05-25T12:34:17.411Z,100665.42
2019-05-25T12:39:39.318Z,100696.94
2019-05-25T12:45:01.029Z,100673.92
2019-05-25T12:50:23.835Z,100673.02
2019-05-25T12:55:45.646Z,100686.30
2019-05-25T13:01:07.376Z,100701.39
2019-05-25T13:06:29.155Z,100684.26
2019-05-25T13:11:50.886Z,100682.28
2019-05-25T13:17:12.627Z,100685.27
2019-05-25T13:22:34.394Z,100683.66
2019-05-25T13:27:56.125Z,100676.11
2019-05-25T13:33:17.869Z,100681.56
2019-05-25T13:38:39.574Z,100655.42
2019-05-25T13:44:01.328Z,100667.43
2019-05-25T13:49:23.847Z,100675.55
2019-05-25T13:54:45.739Z,100679.17
2019-05-25T14:00:07.509Z,100663.59
2019-05-25T14:05:29.894Z,100677.23
2019-05-25T14:10:51.613Z,100664.13
2019-05-25T14:16:13.351Z,100681.81
2019-05-25T14:21:35.428Z,100667.21
2019-05-25T14:26:57.135Z,100667.84
2019-05-25T14:32:18.859Z,100683.91
2019-05-25T14:37:40.631Z,100675.03
2019-05-25T14:43:02.369Z,100658.00
2019-05-25T14:48:24.238Z,100663.17
2019-05-25T14:53:45.942Z,100665.25
2019-05-25T14:59:07.651Z,100648.33
2019-05-25T15:04:29.382Z,100665.83
2019-05-25T15:09:51.075Z,100645.49
2019-05-25T15:15:13.346Z,100656.97
2019-05-25T15:20:35.130Z,100652.67
2019-05-25T15:25:56.879Z,100661.15
2019-05-25T15:31:18.620Z,100654.83
2019-05-25T15:36:40.396Z,100667.83
2019-05-25T15:42:02.164Z,100661.28
2019-05-25T15:47:23.973Z,100660.07
2019-05-25T15:52:45.797Z,100668.80
2019-05-25T15:58:07.635Z,100664.66
2019-05-25T16:03:31.656Z,100676.08
2019-05-25T16:08:53.483Z,100678.80
2019-05-25T16:14:15.218Z,100675.72
2019-05-25T16:19:37.064Z,100667.10
2019-05-25T16:24:58.907Z,100672.80
2019-05-25T16:30:20.786Z,100668.55
2019-05-25T16:35:42.550Z,100689.77
2019-05-25T16:41:05.768Z,100674.92
2019-05-25T16:46:30.079Z,100676.57
2019-05-25T16:51:52.507Z,100677.97
2019-05-25T16:57:14.485Z,100677.73
2019-05-25T17:02:37.865Z,100673.54
2019-05-25T17:08:00.050Z,100681.64
2019-05-25T17:13:21.859Z,100680.67
2019-05-25T17:18:46.655Z,100672.30
2019-05-25T17:24:08.366Z,100687.67
2019-05-25T17:29:32.022Z,100682.33
2019-05-25T17:34:55.488Z,100711.81
2019-05-25T17:40:18.337Z,100703.68
2019-05-25T17:45:42.922Z,100705.27
2019-05-25T17:51:07.586Z,100708.78
2019-05-25T17:56:29.332Z,100717.24
2019-05-25T18:01:52.713Z,100721.42
2019-05-25T18:07:16.515Z,100717.08
2019-05-25T18:12:41.866Z,100729.88
2019-05-25T18:18:07.002Z,100725.81
2019-05-25T18:23:30.960Z,100724.73
2019-05-25T18:28:54.452Z,100720.57
2019-05-25T18:34:22.433Z,100724.18
2019-05-25T18:39:45.736Z,100737.85
2019-05-25T18:45:09.518Z,100743.13
2019-05-25T18:50:33.615Z,100738.90
2019-05-25T18:55:56.534Z,100743.16
2019-05-25T19:01:20.907Z,100742.17
2019-05-25T19:06:44.967Z,100741.23
2019-05-25T19:12:08.176Z,100752.10
2019-05-25T19:17:31.958Z,100750.94
2019-05-25T19:22:55.769Z,100754.35
2019-05-25T19:28:18.940Z,100760.71
2019-05-25T19:33:46.669Z,100762.09
2019-05-25T19:39:08.374Z,100750.19
2019-05-25T19:44:32.470Z,100757.16
2019-05-25T19:49:55.926Z,100748.53
2019-05-25T19:55:21.357Z,100754.52
2019-05-25T20:00:43.693Z,100757.30
2019-05-25T20:06:06.071Z,100761.53
2019-05-25T20:11:29.413Z,100770.30
2019-05-25T20:16:53.800Z,100777.59
2019-05-25T20:22:18.089Z,100768.55
2019-05-25T20:27:42.197Z,100770.38
2019-05-25T20:33:06.299Z,100773.15
2019-05-25T20:38:29.645Z,100773.23
2019-05-25T20:43:53.590Z,100774.52
2019-05-25T20:49:17.292Z,100768.05
2019-05-25T20:54:40.641Z,100776.20
2019-05-25T21:00:02.600Z,100764.36
2019-05-25T21:05:25.750Z,100770.33
2019-05-25T21:10:49.007Z,100770.75
2019-05-25T21:16:13.264Z,100779.13
2019-05-25T21:21:37.339Z,100769.94
2019-05-25T21:27:00.934Z,100770.05
2019-05-25T21:32:24.929Z,100771.59
2019-05-25T21:37:49.026Z,100783.13
2019-05-25T21:43:11.873Z,100782.08
2019-05-25T21:48:35.388Z,100774.98
2019-05-25T21:53:58.926Z,100781.14
2019-05-25T21:59:22.691Z,100775.92
2019-05-25T22:04:46.798Z,100780.02
2019-05-25T22:10:09.971Z,100779.94
2019-05-25T22:15:34.043Z,100780.28
2019-05-25T22:20:58.252Z,100777.27
2019-05-25T22:26:22.269Z,100781.38
2019-05-25T22:31:46.381Z,100769.52
2019-05-25T22:37:10.481Z,100777.42
2019-05-25T22:42:34.250Z,100771.48
2019-05-25T22:47:58.375Z,100769.88
2019-05-25T22:53:21.839Z,100767.20
2019-05-25T22:58:45.933Z,100762.23
2019-05-25T23:04:09.721Z,100756.94
2019-05-25T23:09:33.518Z,100763.56
2019-05-25T23:14:57.622Z,100757.31
2019-05-25T23:20:21.720Z,100763.61
2019-05-25T23:25:45.818Z,100762.67
2019-05-25T23:31:08.693Z,100757.06
2019-05-25T23:36:32.795Z,100761.42
2019-05-25T23:41:56.896Z,100748.64
2019-05-25T23:47:21.050Z,100756.20
2019-05-25T23:52:51.027Z,100751.30
2019-05-25T23:58:14.727Z,100744.25
